createdAt,value
2022-12-20T00:04:05.705Z,9.30
2022-12-20T00:09:09.717Z,9.30
2022-12-20T00:14:14.690Z,9.30
2022-12-20T00:19:18.481Z,9.40
2022-12-20T00:24:26.019Z,9.50
2022-12-20T00:29:31.736Z,9.50
2022-12-20T00:34:35.464Z,9.60
2022-12-20T00:39:40.242Z,9.60
2022-12-20T00:44:45.296Z,9.60
2022-12-20T00:49:49.067Z,9.70
2022-12-20T00:54:52.727Z,9.70
2022-12-20T00:59:57.822Z,9.70
2022-12-20T01:05:01.559Z,9.80
2022-12-20T01:10:05.797Z,9.80
2022-12-20T01:15:12.234Z,9.80
2022-12-20T01:20:16.137Z,9.80
2022-12-20T01:25:19.993Z,9.70
2022-12-20T01:30:25.151Z,9.70
2022-12-20T01:35:29.145Z,9.70
2022-12-20T01:40:33.052Z,9.70
2022-12-20T01:45:38.245Z,9.70
2022-12-20T01:50:42.566Z,9.60
2022-12-20T01:55:47.883Z,9.60
2022-12-20T02:00:54.715Z,9.70
2022-12-20T02:05:58.574Z,9.60
2022-12-20T02:11:15.221Z,9.60
2022-12-20T02:16:25.872Z,9.60
2022-12-20T02:21:35.707Z,9.60
2022-12-20T02:27:20.761Z,9.60
2022-12-20T02:32:30.342Z,9.60
2022-12-20T02:37:34.074Z,9.60
2022-12-20T02:42:38.233Z,9.50
2022-12-20T02:47:49.048Z,9.50
2022-12-20T02:52:54.429Z,9.60
2022-12-20T02:58:04.005Z,9.60
2022-12-20T03:03:25.737Z,9.60
2022-12-20T03:08:29.936Z,9.70
2022-12-20T03:13:34.449Z,9.70
2022-12-20T03:18:46.125Z,9.70
2022-12-20T03:23:49.869Z,9.70
2022-12-20T03:28:53.710Z,9.70
2022-12-20T03:34:01.755Z,9.70
2022-12-20T03:39:06.195Z,9.80
2022-12-20T03:44:14.205Z,9.80
2022-12-20T03:49:19.913Z,9.90
2022-12-20T03:54:27.239Z,9.90
2022-12-20T03:59:47.754Z,10.00
2022-12-20T04:04:54.689Z,10.00
2022-12-20T04:09:59.555Z,10.00
2022-12-20T04:15:03.227Z,10.00
2022-12-20T04:20:19.907Z,10.10
2022-12-20T04:25:42.492Z,10.20
2022-12-20T04:30:48.024Z,10.20
2022-12-20T04:35:58.616Z,10.20
2022-12-20T04:41:02.976Z,10.30
2022-12-20T04:46:17.787Z,10.20
2022-12-20T04:51:24.046Z,10.30
2022-12-20T04:56:29.835Z,10.20
2022-12-20T05:01:40.377Z,10.30
2022-12-20T05:06:46.026Z,10.30
2022-12-20T05:11:51.208Z,10.30
2022-12-20T05:16:54.986Z,10.40
2022-12-20T05:22:17.939Z,10.30
2022-12-20T05:27:37.030Z,10.40
2022-12-20T05:32:41.265Z,10.40
2022-12-20T05:37:46.953Z,10.40
2022-12-20T05:42:55.657Z,10.40
2022-12-20T05:48:07.299Z,10.50
2022-12-20T05:53:18.235Z,10.50
2022-12-20T05:58:27.406Z,10.50
2022-12-20T06:03:36.362Z,10.50
2022-12-20T06:08:44.979Z,10.50
2022-12-20T06:13:54.765Z,10.50
2022-12-20T06:18:58.658Z,10.50
2022-12-20T06:24:04.626Z,10.40
2022-12-20T06:29:10.285Z,10.50
2022-12-20T06:34:19.048Z,10.40
2022-12-20T06:39:25.104Z,10.40
2022-12-20T06:44:36.276Z,10.40
2022-12-20T06:49:40.102Z,10.40
2022-12-20T06:54:53.733Z,10.40
2022-12-20T06:59:58.917Z,10.30
2022-12-20T07:05:02.761Z,10.40
2022-12-20T07:10:09.578Z,10.40
2022-12-20T07:15:13.327Z,10.40
2022-12-20T07:20:17.770Z,10.40
2022-12-20T07:25:23.077Z,10.40
2022-12-20T07:30:26.920Z,10.40
2022-12-20T07:35:30.665Z,10.40
2022-12-20T07:40:35.896Z,10.50
2022-12-20T07:45:40.750Z,10.50
2022-12-20T07:50:44.602Z,10.50
2022-12-20T07:55:50.473Z,10.50
2022-12-20T08:00:54.304Z,10.50
2022-12-20T08:06:03.962Z,10.50
2022-12-20T08:11:11.166Z,10.60
2022-12-20T08:16:14.741Z,10.60
2022-12-20T08:21:19.178Z,10.50
2022-12-20T08:26:25.149Z,10.50
2022-12-20T08:31:29.264Z,10.40
2022-12-20T08:36:33.433Z,10.40
2022-12-20T08:41:38.927Z,10.40
2022-12-20T08:46:42.931Z,10.30
2022-12-20T08:51:46.801Z,10.30
2022-12-20T08:56:51.938Z,10.30
2022-12-20T09:01:55.792Z,10.30
2022-12-20T09:06:59.708Z,10.30
2022-12-20T09:12:05.146Z,10.30
2022-12-20T09:17:09.045Z,10.30
2022-12-20T09:22:12.831Z,10.30
2022-12-20T09:27:17.940Z,10.20
2022-12-20T09:32:21.747Z,10.30
2022-12-20T09:37:25.492Z,10.20
2022-12-20T09:42:31.279Z,10.30
2022-12-20T09:47:37.186Z,10.30
2022-12-20T09:52:56.787Z,10.30
2022-12-20T09:58:15.901Z,10.30
2022-12-20T10:03:23.056Z,10.30
2022-12-20T10:08:47.060Z,10.40
2022-12-20T10:14:05.772Z,10.40
2022-12-20T10:19:29.586Z,10.40
2022-12-20T10:24:35.085Z,10.50
2022-12-20T10:29:40.354Z,10.50
2022-12-20T10:34:53.164Z,10.50
2022-12-20T10:39:59.584Z,10.50
2022-12-20T10:45:36.203Z,10.60
2022-12-20T10:50:40.369Z,10.60
2022-12-20T10:55:44.498Z,10.50
2022-12-20T11:00:49.825Z,10.60
2022-12-20T11:05:57.006Z,10.50
2022-12-20T11:11:14.317Z,10.60
2022-12-20T11:16:37.051Z,10.60
2022-12-20T11:21:48.544Z,10.60
2022-12-20T11:27:17.314Z,10.60
2022-12-20T11:32:33.935Z,10.60
2022-12-20T11:37:46.729Z,10.60
2022-12-20T11:43:02.122Z,10.70
2022-12-20T11:48:27.884Z,10.60
2022-12-20T11:53:38.597Z,10.60
2022-12-20T11:58:52.915Z,10.60
2022-12-20T12:04:05.762Z,10.70
2022-12-20T12:09:19.505Z,10.60
2022-12-20T12:14:39.253Z,10.60
2022-12-20T12:19:49.945Z,10.60
2022-12-20T12:24:59.176Z,10.60
2022-12-20T12:30:02.890Z,10.70
2022-12-20T12:35:47.212Z,10.60
2022-12-20T12:41:13.432Z,10.70
2022-12-20T12:46:21.335Z,10.60
2022-12-20T12:51:30.905Z,10.70
2022-12-20T12:56:44.595Z,10.80
2022-12-20T13:01:51.734Z,10.70
2022-12-20T13:07:01.177Z,10.70
2022-12-20T13:12:40.561Z,10.60
2022-12-20T13:17:51.068Z,10.70
2022-12-20T13:23:18.353Z,10.70
2022-12-20T13:28:46.932Z,10.80
2022-12-20T13:33:51.932Z,10.70
2022-12-20T13:39:01.955Z,10.80
2022-12-20T13:44:25.656Z,10.80
2022-12-20T13:49:33.461Z,10.70
2022-12-20T13:54:42.309Z,10.70
2022-12-20T13:59:49.212Z,10.60
2022-12-20T14:05:00.296Z,10.70
2022-12-20T14:10:19.895Z,10.60
2022-12-20T14:15:26.835Z,10.80
2022-12-20T14:20:33.863Z,10.70
2022-12-20T14:25:45.435Z,10.60
2022-12-20T14:30:49.255Z,10.70
2022-12-20T14:35:53.034Z,10.80
2022-12-20T14:40:58.259Z,10.60
2022-12-20T14:46:20.076Z,10.70
2022-12-20T14:51:24.034Z,10.60
2022-12-20T14:56:32.219Z,10.60
2022-12-20T15:01:43.425Z,10.70
2022-12-20T15:06:48.340Z,10.60
2022-12-20T15:11:54.580Z,10.70
2022-12-20T15:16:58.447Z,10.60
2022-12-20T15:22:02.859Z,10.70
2022-12-20T15:27:14.551Z,10.70
2022-12-20T15:32:24.400Z,10.60
2022-12-20T15:37:28.181Z,10.60
2022-12-20T15:42:33.460Z,10.60
2022-12-20T15:47:37.176Z,10.60
2022-12-20T15:52:41.026Z,10.60
2022-12-20T15:57:47.287Z,10.60
2022-12-20T16:02:51.714Z,10.60
2022-12-20T16:07:55.654Z,10.60
2022-12-20T16:13:00.752Z,10.60
2022-12-20T16:18:04.544Z,10.60
2022-12-20T16:23:18.177Z,10.50
2022-12-20T16:28:23.405Z,10.50
2022-12-20T16:33:27.351Z,10.50
2022-12-20T16:38:31.005Z,10.40
2022-12-20T16:43:38.951Z,10.60
2022-12-20T16:48:43.109Z,10.50
2022-12-20T16:54:17.417Z,10.50
2022-12-20T16:59:22.077Z,10.60
2022-12-20T17:04:26.820Z,10.60
2022-12-20T17:14:53.772Z,10.60
2022-12-20T17:19:57.538Z,10.60
2022-12-20T17:25:01.290Z,10.50
2022-12-20T17:30:07.848Z,10.50
2022-12-20T17:35:26.514Z,10.40
2022-12-20T17:40:30.788Z,10.50
2022-12-20T17:45:38.817Z,10.60
2022-12-20T17:50:42.753Z,10.60
2022-12-20T17:55:46.586Z,10.50
2022-12-20T18:00:51.996Z,10.50
2022-12-20T18:05:55.848Z,10.40
2022-12-20T18:10:59.850Z,10.50
2022-12-20T18:16:08.264Z,10.50
2022-12-20T18:21:14.916Z,10.60
2022-12-20T18:26:21.691Z,10.40
2022-12-20T18:31:28.583Z,10.60
2022-12-20T18:36:34.843Z,10.40
2022-12-20T18:41:38.947Z,10.50
2022-12-20T18:46:44.289Z,10.40
2022-12-20T18:51:48.086Z,10.50
2022-12-20T18:56:51.956Z,10.40
2022-12-20T19:01:57.289Z,10.50
2022-12-20T19:07:01.528Z,10.60
2022-12-20T19:12:05.916Z,10.60
2022-12-20T19:17:11.386Z,10.60
2022-12-20T19:22:15.185Z,10.50
2022-12-20T19:27:18.877Z,10.60
2022-12-20T19:32:23.960Z,10.40
2022-12-20T19:37:33.463Z,10.40
2022-12-20T19:42:43.278Z,10.40
2022-12-20T19:47:48.406Z,10.40
2022-12-20T19:52:53.472Z,10.50
2022-12-20T19:57:57.241Z,10.40
2022-12-20T20:03:02.680Z,10.50
2022-12-20T20:08:06.607Z,10.60
2022-12-20T20:13:10.536Z,10.40
2022-12-20T20:18:15.613Z,10.40
2022-12-20T20:23:19.849Z,10.60
2022-12-20T20:28:29.662Z,10.50
2022-12-20T20:33:37.299Z,10.50
2022-12-20T20:38:41.188Z,10.40
2022-12-20T20:43:45.421Z,10.40
2022-12-20T20:48:50.526Z,10.50
2022-12-20T20:53:54.236Z,10.60
2022-12-20T20:59:05.092Z,10.40
2022-12-20T21:04:12.205Z,10.60
2022-12-20T21:09:16.150Z,10.50
2022-12-20T21:14:43.340Z,10.40
2022-12-20T21:19:45.904Z,10.50
2022-12-20T21:24:49.685Z,10.50
2022-12-20T21:29:53.482Z,10.40
2022-12-20T21:34:59.567Z,10.40
2022-12-20T21:40:03.389Z,10.40
2022-12-20T21:45:08.601Z,10.40
2022-12-20T21:50:14.848Z,10.40
2022-12-20T21:55:18.707Z,10.40
2022-12-20T22:00:23.065Z,10.40
2022-12-20T22:05:28.147Z,10.50
2022-12-20T22:10:31.819Z,10.40
2022-12-20T22:15:36.119Z,10.30
2022-12-20T22:20:44.956Z,10.40
2022-12-20T22:25:48.661Z,10.40
2022-12-20T22:30:53.366Z,10.30
2022-12-20T22:36:00.742Z,10.40
2022-12-20T22:41:09.611Z,10.40
2022-12-20T22:46:14.905Z,10.30
2022-12-20T22:51:21.939Z,10.40
2022-12-20T22:56:25.669Z,10.40
2022-12-20T23:01:29.691Z,10.30
2022-12-20T23:06:34.978Z,10.40
2022-12-20T23:11:56.142Z,10.40
2022-12-20T23:17:00.313Z,10.30
2022-12-20T23:22:22.959Z,10.40
2022-12-20T23:27:26.917Z,10.30
2022-12-20T23:32:30.892Z,10.30
2022-12-20T23:37:36.114Z,10.30
2022-12-20T23:42:39.993Z,10.30
2022-12-20T23:47:43.698Z,10.20
2022-12-20T23:52:48.859Z,10.30
2022-12-20T23:57:52.605Z,10.30
